sensor_id;sensor_type;location;lat;lon;timestamp;P1;durP1;ratioP1;P2;durP2;ratioP2
4630;SDS011;2328;48.170;11.602;2023-07-29T12:38:27;1.13;;;1.03;;
4630;SDS011;2328;48.170;11.602;2023-07-29T12:40:56;1.20;;;0.80;;
4630;SDS011;2328;48.170;11.602;2023-07-29T12:43:25;1.40;;;1.23;;
4630;SDS011;2328;48.170;11.602;2023-07-29T12:45:57;1.43;;;0.93;;
4630;SDS011;2328;48.170;11.602;2023-07-29T12:48:37;1.37;;;0.90;;
4630;SDS011;2328;48.170;11.602;2023-07-29T12:51:13;1.23;;;1.13;;
4630;SDS011;2328;48.170;11.602;2023-07-29T12:54:04;2.47;;;1.47;;
4630;SDS011;2328;48.170;11.602;2023-07-29T12:56:33;4.40;;;1.80;;
4630;SDS011;2328;48.170;11.602;2023-07-29T13:01:47;2.93;;;1.33;;
4630;SDS011;2328;48.170;11.602;2023-07-29T13:04:16;1.60;;;1.30;;
4630;SDS011;2328;48.170;11.602;2023-07-29T13:06:45;1.40;;;1.13;;
4630;SDS011;2328;48.170;11.602;2023-07-29T13:09:16;3.20;;;1.73;;
4630;SDS011;2328;48.170;11.602;2023-07-29T13:11:46;1.50;;;1.20;;
4630;SDS011;2328;48.170;11.602;2023-07-29T13:14:20;4.10;;;1.60;;
4630;SDS011;2328;48.170;11.602;2023-07-29T13:19:40;2.17;;;1.50;;
4630;SDS011;2328;48.170;11.602;2023-07-29T13:22:10;3.00;;;1.17;;
4630;SDS011;2328;48.170;11.602;2023-07-29T13:24:40;2.10;;;1.43;;
4630;SDS011;2328;48.170;11.602;2023-07-29T13:27:08;6.17;;;2.27;;
4630;SDS011;2328;48.170;11.602;2023-07-29T13:29:47;1.57;;;1.47;;
4630;SDS011;2328;48.170;11.602;2023-07-29T13:32:22;2.37;;;1.90;;
4630;SDS011;2328;48.170;11.602;2023-07-29T13:34:51;1.93;;;1.40;;
4630;SDS011;2328;48.170;11.602;2023-07-29T13:37:20;3.00;;;1.60;;
4630;SDS011;2328;48.170;11.602;2023-07-29T13:39:50;2.27;;;2.00;;
4630;SDS011;2328;48.170;11.602;2023-07-29T13:42:19;2.03;;;1.80;;
4630;SDS011;2328;48.170;11.602;2023-07-29T13:44:48;2.20;;;2.03;;
4630;SDS011;2328;48.170;11.602;2023-07-29T13:47:25;2.30;;;2.00;;
4630;SDS011;2328;48.170;11.602;2023-07-29T13:49:53;2.30;;;2.10;;
4630;SDS011;2328;48.170;11.602;2023-07-29T13:52:30;3.70;;;2.40;;
4630;SDS011;2328;48.170;11.602;2023-07-29T13:55:01;3.50;;;2.27;;
4630;SDS011;2328;48.170;11.602;2023-07-29T13:57:32;3.30;;;2.50;;
4630;SDS011;2328;48.170;11.602;2023-07-29T14:00:00;2.57;;;2.10;;
4630;SDS011;2328;48.170;11.602;2023-07-29T14:02:32;3.33;;;2.60;;
4630;SDS011;2328;48.170;11.602;2023-07-29T14:05:05;6.17;;;3.50;;
4630;SDS011;2328;48.170;11.602;2023-07-29T14:07:33;3.30;;;2.93;;
4630;SDS011;2328;48.170;11.602;2023-07-29T14:10:04;2.93;;;2.60;;
4630;SDS011;2328;48.170;11.602;2023-07-29T14:12:33;2.57;;;2.30;;
4630;SDS011;2328;48.170;11.602;2023-07-29T14:15:09;3.30;;;2.50;;
4630;SDS011;2328;48.170;11.602;2023-07-29T14:17:39;2.70;;;2.50;;
4630;SDS011;2328;48.170;11.602;2023-07-29T14:20:08;2.87;;;2.30;;
4630;SDS011;2328;48.170;11.602;2023-07-29T14:22:42;2.90;;;2.70;;
4630;SDS011;2328;48.170;11.602;2023-07-29T14:25:13;7.47;;;2.20;;
4630;SDS011;2328;48.170;11.602;2023-07-29T14:27:42;2.50;;;2.30;;
4630;SDS011;2328;48.170;11.602;2023-07-29T14:30:11;6.30;;;2.67;;
4630;SDS011;2328;48.170;11.602;2023-07-29T14:32:39;4.83;;;1.67;;
4630;SDS011;2328;48.170;11.602;2023-07-29T14:35:09;3.37;;;2.40;;
4630;SDS011;2328;48.170;11.602;2023-07-29T14:37:38;3.23;;;2.30;;
4630;SDS011;2328;48.170;11.602;2023-07-29T14:40:08;3.00;;;2.17;;
4630;SDS011;2328;48.170;11.602;2023-07-29T14:42:45;4.97;;;2.70;;
4630;SDS011;2328;48.170;11.602;2023-07-29T14:45:15;2.40;;;2.20;;
4630;SDS011;2328;48.170;11.602;2023-07-29T14:47:46;4.83;;;2.30;;
4630;SDS011;2328;48.170;11.602;2023-07-29T14:53:06;4.73;;;2.87;;
4630;SDS011;2328;48.170;11.602;2023-07-29T14:55:37;2.60;;;2.03;;
4630;SDS011;2328;48.170;11.602;2023-07-29T14:58:07;4.30;;;2.80;;
4630;SDS011;2328;48.170;11.602;2023-07-29T15:00:39;3.10;;;2.30;;
4630;SDS011;2328;48.170;11.602;2023-07-29T15:05:54;2.20;;;2.00;;
4630;SDS011;2328;48.170;11.602;2023-07-29T15:08:33;2.30;;;1.80;;
4630;SDS011;2328;48.170;11.602;2023-07-29T15:11:07;2.50;;;2.00;;
4630;SDS011;2328;48.170;11.602;2023-07-29T15:13:37;2.30;;;1.73;;
4630;SDS011;2328;48.170;11.602;2023-07-29T15:16:05;2.27;;;2.07;;
4630;SDS011;2328;48.170;11.602;2023-07-29T15:18:34;2.47;;;1.57;;
4630;SDS011;2328;48.170;11.602;2023-07-29T15:21:03;3.23;;;2.27;;
4630;SDS011;2328;48.170;11.602;2023-07-29T15:23:32;4.40;;;2.10;;
4630;SDS011;2328;48.170;11.602;2023-07-29T15:26:00;2.03;;;1.93;;
4630;SDS011;2328;48.170;11.602;2023-07-29T15:28:29;2.70;;;1.77;;
4630;SDS011;2328;48.170;11.602;2023-07-29T15:30:59;2.87;;;1.57;;
4630;SDS011;2328;48.170;11.602;2023-07-29T15:33:28;1.80;;;1.70;;
4630;SDS011;2328;48.170;11.602;2023-07-29T15:36:07;2.47;;;1.90;;
4630;SDS011;2328;48.170;11.602;2023-07-29T15:38:35;1.97;;;1.83;;
4630;SDS011;2328;48.170;11.602;2023-07-29T15:41:04;2.17;;;1.60;;
4630;SDS011;2328;48.170;11.602;2023-07-29T15:43:33;2.60;;;2.13;;
4630;SDS011;2328;48.170;11.602;2023-07-29T15:46:04;2.17;;;1.87;;
4630;SDS011;2328;48.170;11.602;2023-07-29T15:48:35;6.33;;;1.97;;
4630;SDS011;2328;48.170;11.602;2023-07-29T15:51:06;2.20;;;1.63;;
4630;SDS011;2328;48.170;11.602;2023-07-29T15:53:36;2.43;;;1.60;;
4630;SDS011;2328;48.170;11.602;2023-07-29T15:56:04;1.53;;;1.40;;
4630;SDS011;2328;48.170;11.602;2023-07-29T15:58:39;2.20;;;1.40;;
4630;SDS011;2328;48.170;11.602;2023-07-29T16:01:09;5.70;;;2.10;;
4630;SDS011;2328;48.170;11.602;2023-07-29T16:03:39;4.50;;;1.87;;
4630;SDS011;2328;48.170;11.602;2023-07-29T16:06:08;2.93;;;1.53;;
4630;SDS011;2328;48.170;11.602;2023-07-29T16:08:38;3.03;;;1.73;;
4630;SDS011;2328;48.170;11.602;2023-07-29T16:11:06;2.70;;;1.63;;
4630;SDS011;2328;48.170;11.602;2023-07-29T16:13:34;2.00;;;1.57;;
4630;SDS011;2328;48.170;11.602;2023-07-29T16:16:03;3.63;;;2.17;;
4630;SDS011;2328;48.170;11.602;2023-07-29T16:18:33;2.13;;;1.60;;
4630;SDS011;2328;48.170;11.602;2023-07-29T16:21:02;3.73;;;2.17;;
4630;SDS011;2328;48.170;11.602;2023-07-29T16:23:32;2.07;;;1.87;;
4630;SDS011;2328;48.170;11.602;2023-07-29T16:26:00;2.07;;;1.33;;
4630;SDS011;2328;48.170;11.602;2023-07-29T16:28:29;2.13;;;1.93;;
4630;SDS011;2328;48.170;11.602;2023-07-29T16:30:57;3.07;;;1.80;;
4630;SDS011;2328;48.170;11.602;2023-07-29T16:33:27;2.10;;;1.90;;
4630;SDS011;2328;48.170;11.602;2023-07-29T16:35:57;2.17;;;1.90;;
4630;SDS011;2328;48.170;11.602;2023-07-29T16:38:25;2.07;;;1.90;;
4630;SDS011;2328;48.170;11.602;2023-07-29T16:40:54;2.10;;;1.90;;
4630;SDS011;2328;48.170;11.602;2023-07-29T16:43:43;2.00;;;1.90;;
4630;SDS011;2328;48.170;11.602;2023-07-29T16:46:13;3.10;;;1.77;;
4630;SDS011;2328;48.170;11.602;2023-07-29T16:48:43;3.60;;;1.87;;
4630;SDS011;2328;48.170;11.602;2023-07-29T16:51:13;3.90;;;1.90;;
4630;SDS011;2328;48.170;11.602;2023-07-29T16:53:48;2.87;;;1.90;;
4630;SDS011;2328;48.170;11.602;2023-07-29T16:56:19;2.03;;;1.50;;
4630;SDS011;2328;48.170;11.602;2023-07-29T16:58:52;2.50;;;2.30;;
4630;SDS011;2328;48.170;11.602;2023-07-29T17:01:21;1.70;;;1.50;;
4630;SDS011;2328;48.170;11.602;2023-07-29T17:03:49;4.10;;;1.90;;
4630;SDS011;2328;48.170;11.602;2023-07-29T17:06:19;2.63;;;2.27;;
4630;SDS011;2328;48.170;11.602;2023-07-29T17:08:50;3.60;;;2.27;;
4630;SDS011;2328;48.170;11.602;2023-07-29T17:11:18;3.30;;;2.57;;
4630;SDS011;2328;48.170;11.602;2023-07-29T17:13:47;3.93;;;2.90;;
4630;SDS011;2328;48.170;11.602;2023-07-29T17:16:16;3.17;;;2.30;;
4630;SDS011;2328;48.170;11.602;2023-07-29T17:18:44;2.00;;;1.80;;
4630;SDS011;2328;48.170;11.602;2023-07-29T17:21:13;2.60;;;1.97;;
4630;SDS011;2328;48.170;11.602;2023-07-29T17:23:43;2.40;;;2.00;;
4630;SDS011;2328;48.170;11.602;2023-07-29T17:26:11;2.63;;;1.93;;
4630;SDS011;2328;48.170;11.602;2023-07-29T17:28:41;1.40;;;1.30;;
4630;SDS011;2328;48.170;11.602;2023-07-29T17:31:10;1.57;;;1.33;;
4630;SDS011;2328;48.170;11.602;2023-07-29T17:33:43;3.13;;;1.70;;
4630;SDS011;2328;48.170;11.602;2023-07-29T17:36:11;1.47;;;1.37;;
4630;SDS011;2328;48.170;11.602;2023-07-29T17:38:40;2.00;;;1.67;;
4630;SDS011;2328;48.170;11.602;2023-07-29T17:41:11;3.03;;;1.77;;
4630;SDS011;2328;48.170;11.602;2023-07-29T17:43:41;1.70;;;1.57;;
4630;SDS011;2328;48.170;11.602;2023-07-29T17:46:11;2.30;;;2.00;;
4630;SDS011;2328;48.170;11.602;2023-07-29T17:48:42;1.73;;;1.47;;
4630;SDS011;2328;48.170;11.602;2023-07-29T17:51:11;2.70;;;1.80;;
4630;SDS011;2328;48.170;11.602;2023-07-29T17:53:40;2.00;;;1.70;;
4630;SDS011;2328;48.170;11.602;2023-07-29T17:56:13;4.57;;;1.83;;
4630;SDS011;2328;48.170;11.602;2023-07-29T17:58:43;2.90;;;1.97;;
4630;SDS011;2328;48.170;11.602;2023-07-29T18:01:11;4.27;;;2.40;;
4630;SDS011;2328;48.170;11.602;2023-07-29T18:03:39;2.73;;;2.53;;
4630;SDS011;2328;48.170;11.602;2023-07-29T18:06:12;5.23;;;2.17;;
4630;SDS011;2328;48.170;11.602;2023-07-29T18:08:41;2.13;;;1.80;;
4630;SDS011;2328;48.170;11.602;2023-07-29T18:11:11;2.30;;;1.90;;
4630;SDS011;2328;48.170;11.602;2023-07-29T18:13:41;1.93;;;1.73;;
4630;SDS011;2328;48.170;11.602;2023-07-29T18:16:10;1.70;;;1.43;;
4630;SDS011;2328;48.170;11.602;2023-07-29T18:18:43;2.20;;;2.00;;
4630;SDS011;2328;48.170;11.602;2023-07-29T18:21:12;1.53;;;1.43;;
4630;SDS011;2328;48.170;11.602;2023-07-29T18:23:43;3.60;;;1.77;;
4630;SDS011;2328;48.170;11.602;2023-07-29T18:26:13;2.10;;;1.70;;
4630;SDS011;2328;48.170;11.602;2023-07-29T18:28:41;1.83;;;1.57;;
4630;SDS011;2328;48.170;11.602;2023-07-29T18:31:10;1.87;;;1.53;;
4630;SDS011;2328;48.170;11.602;2023-07-29T18:33:44;2.20;;;1.50;;
4630;SDS011;2328;48.170;11.602;2023-07-29T18:36:13;1.67;;;1.20;;
4630;SDS011;2328;48.170;11.602;2023-07-29T18:38:43;2.00;;;1.80;;
4630;SDS011;2328;48.170;11.602;2023-07-29T18:41:13;2.70;;;1.80;;
4630;SDS011;2328;48.170;11.602;2023-07-29T18:43:43;1.63;;;1.43;;
4630;SDS011;2328;48.170;11.602;2023-07-29T18:46:12;2.23;;;1.73;;
4630;SDS011;2328;48.170;11.602;2023-07-29T18:48:40;2.33;;;1.90;;
4630;SDS011;2328;48.170;11.602;2023-07-29T18:51:09;4.40;;;1.97;;
4630;SDS011;2328;48.170;11.602;2023-07-29T18:53:38;2.97;;;2.20;;
4630;SDS011;2328;48.170;11.602;2023-07-29T18:56:06;2.33;;;2.07;;
4630;SDS011;2328;48.170;11.602;2023-07-29T18:58:37;3.10;;;2.07;;
4630;SDS011;2328;48.170;11.602;2023-07-29T19:01:06;2.97;;;2.40;;
4630;SDS011;2328;48.170;11.602;2023-07-29T19:03:36;1.77;;;1.67;;
4630;SDS011;2328;48.170;11.602;2023-07-29T19:06:08;2.43;;;2.03;;
4630;SDS011;2328;48.170;11.602;2023-07-29T19:08:37;1.87;;;1.40;;
4630;SDS011;2328;48.170;11.602;2023-07-29T19:11:12;3.47;;;1.97;;
4630;SDS011;2328;48.170;11.602;2023-07-29T19:13:54;6.40;;;1.53;;
4630;SDS011;2328;48.170;11.602;2023-07-29T19:16:22;2.10;;;1.70;;
4630;SDS011;2328;48.170;11.602;2023-07-29T19:18:51;1.70;;;1.53;;
4630;SDS011;2328;48.170;11.602;2023-07-29T19:21:21;2.17;;;1.97;;
4630;SDS011;2328;48.170;11.602;2023-07-29T19:23:52;3.23;;;2.07;;
4630;SDS011;2328;48.170;11.602;2023-07-29T19:26:22;4.83;;;2.40;;
4630;SDS011;2328;48.170;11.602;2023-07-29T19:28:51;2.40;;;1.77;;
4630;SDS011;2328;48.170;11.602;2023-07-29T19:31:25;2.30;;;2.07;;
4630;SDS011;2328;48.170;11.602;2023-07-29T19:33:57;3.90;;;1.77;;
4630;SDS011;2328;48.170;11.602;2023-07-29T19:36:28;3.53;;;2.10;;
4630;SDS011;2328;48.170;11.602;2023-07-29T19:38:58;3.23;;;2.00;;
4630;SDS011;2328;48.170;11.602;2023-07-29T19:41:30;1.70;;;1.60;;
4630;SDS011;2328;48.170;11.602;2023-07-29T19:44:00;1.70;;;1.60;;
4630;SDS011;2328;48.170;11.602;2023-07-29T19:46:48;3.93;;;2.27;;
4630;SDS011;2328;48.170;11.602;2023-07-29T19:49:19;2.13;;;1.97;;
4630;SDS011;2328;48.170;11.602;2023-07-29T19:51:50;1.93;;;1.80;;
4630;SDS011;2328;48.170;11.602;2023-07-29T19:54:20;1.63;;;1.53;;
4630;SDS011;2328;48.170;11.602;2023-07-29T19:56:49;1.90;;;1.40;;
4630;SDS011;2328;48.170;11.602;2023-07-29T19:59:17;1.40;;;1.27;;
4630;SDS011;2328;48.170;11.602;2023-07-29T20:01:55;2.40;;;1.60;;
4630;SDS011;2328;48.170;11.602;2023-07-29T20:04:24;2.40;;;1.30;;
4630;SDS011;2328;48.170;11.602;2023-07-29T20:06:53;1.67;;;1.57;;
4630;SDS011;2328;48.170;11.602;2023-07-29T20:09:23;2.10;;;1.67;;
4630;SDS011;2328;48.170;11.602;2023-07-29T20:11:54;3.50;;;1.37;;
4630;SDS011;2328;48.170;11.602;2023-07-29T20:14:23;1.77;;;1.50;;
4630;SDS011;2328;48.170;11.602;2023-07-29T20:16:51;2.20;;;1.30;;
4630;SDS011;2328;48.170;11.602;2023-07-29T20:19:23;1.57;;;1.27;;
4630;SDS011;2328;48.170;11.602;2023-07-29T20:21:52;2.07;;;1.50;;
4630;SDS011;2328;48.170;11.602;2023-07-29T20:24:21;1.47;;;1.37;;
4630;SDS011;2328;48.170;11.602;2023-07-29T20:26:50;3.80;;;1.67;;
4630;SDS011;2328;48.170;11.602;2023-07-29T20:29:22;2.10;;;1.53;;
4630;SDS011;2328;48.170;11.602;2023-07-29T20:31:51;1.57;;;1.47;;
4630;SDS011;2328;48.170;11.602;2023-07-29T20:34:24;6.90;;;1.50;;
4630;SDS011;2328;48.170;11.602;2023-07-29T20:36:53;2.60;;;1.77;;
4630;SDS011;2328;48.170;11.602;2023-07-29T20:39:21;1.33;;;1.23;;
4630;SDS011;2328;48.170;11.602;2023-07-29T20:41:50;4.77;;;1.50;;
4630;SDS011;2328;48.170;11.602;2023-07-29T20:44:18;1.93;;;1.40;;
4630;SDS011;2328;48.170;11.602;2023-07-29T20:46:48;3.13;;;1.47;;
4630;SDS011;2328;48.170;11.602;2023-07-29T20:49:16;1.30;;;1.20;;
4630;SDS011;2328;48.170;11.602;2023-07-29T20:51:51;1.50;;;1.40;;
4630;SDS011;2328;48.170;11.602;2023-07-29T20:54:27;3.73;;;1.47;;
4630;SDS011;2328;48.170;11.602;2023-07-29T20:57:01;2.67;;;1.80;;
4630;SDS011;2328;48.170;11.602;2023-07-29T20:59:30;2.33;;;1.50;;
4630;SDS011;2328;48.170;11.602;2023-07-29T21:02:04;1.53;;;1.20;;
4630;SDS011;2328;48.170;11.602;2023-07-29T21:04:34;1.37;;;1.27;;
4630;SDS011;2328;48.170;11.602;2023-07-29T21:07:13;2.27;;;1.90;;
4630;SDS011;2328;48.170;11.602;2023-07-29T21:09:52;2.10;;;1.60;;
4630;SDS011;2328;48.170;11.602;2023-07-29T21:12:23;1.83;;;1.63;;
4630;SDS011;2328;48.170;11.602;2023-07-29T21:15:11;1.30;;;1.20;;
4630;SDS011;2328;48.170;11.602;2023-07-29T21:17:43;2.10;;;1.17;;
4630;SDS011;2328;48.170;11.602;2023-07-29T21:20:14;1.47;;;1.37;;
4630;SDS011;2328;48.170;11.602;2023-07-29T21:22:50;1.73;;;1.57;;
4630;SDS011;2328;48.170;11.602;2023-07-29T21:25:32;3.53;;;1.83;;
4630;SDS011;2328;48.170;11.602;2023-07-29T21:28:01;2.00;;;1.50;;
4630;SDS011;2328;48.170;11.602;2023-07-29T21:30:31;1.30;;;1.10;;
4630;SDS011;2328;48.170;11.602;2023-07-29T21:33:00;1.20;;;1.10;;
4630;SDS011;2328;48.170;11.602;2023-07-29T21:35:29;2.43;;;1.20;;
4630;SDS011;2328;48.170;11.602;2023-07-29T21:37:58;1.50;;;1.20;;
4630;SDS011;2328;48.170;11.602;2023-07-29T21:40:47;1.50;;;1.40;;
4630;SDS011;2328;48.170;11.602;2023-07-29T21:43:16;1.40;;;1.07;;
4630;SDS011;2328;48.170;11.602;2023-07-29T21:45:45;1.50;;;1.40;;
4630;SDS011;2328;48.170;11.602;2023-07-29T21:48:16;2.90;;;1.30;;
4630;SDS011;2328;48.170;11.602;2023-07-29T21:50:46;2.13;;;1.07;;
4630;SDS011;2328;48.170;11.602;2023-07-29T21:53:20;1.57;;;1.30;;
4630;SDS011;2328;48.170;11.602;2023-07-29T21:55:48;1.93;;;1.33;;
4630;SDS011;2328;48.170;11.602;2023-07-29T21:58:18;1.10;;;1.00;;
4630;SDS011;2328;48.170;11.602;2023-07-29T22:01:03;1.70;;;1.60;;
4630;SDS011;2328;48.170;11.602;2023-07-29T22:03:32;1.93;;;1.27;;
4630;SDS011;2328;48.170;11.602;2023-07-29T22:06:03;4.43;;;1.40;;
4630;SDS011;2328;48.170;11.602;2023-07-29T22:08:34;1.37;;;1.13;;
4630;SDS011;2328;48.170;11.602;2023-07-29T22:11:04;1.60;;;1.50;;
4630;SDS011;2328;48.170;11.602;2023-07-29T22:13:38;2.60;;;1.00;;
4630;SDS011;2328;48.170;11.602;2023-07-29T22:16:06;1.67;;;1.00;;
4630;SDS011;2328;48.170;11.602;2023-07-29T22:18:35;1.50;;;1.33;;
4630;SDS011;2328;48.170;11.602;2023-07-29T22:21:03;1.30;;;1.20;;
4630;SDS011;2328;48.170;11.602;2023-07-29T22:23:33;1.10;;;1.00;;
4630;SDS011;2328;48.170;11.602;2023-07-29T22:26:15;1.00;;;0.90;;
4630;SDS011;2328;48.170;11.602;2023-07-29T22:28:46;0.90;;;0.70;;
4630;SDS011;2328;48.170;11.602;2023-07-29T22:31:16;1.37;;;0.90;;
4630;SDS011;2328;48.170;11.602;2023-07-29T22:33:45;1.20;;;1.10;;
4630;SDS011;2328;48.170;11.602;2023-07-29T22:36:15;1.50;;;1.00;;
4630;SDS011;2328;48.170;11.602;2023-07-29T22:38:47;0.77;;;0.70;;
4630;SDS011;2328;48.170;11.602;2023-07-29T22:41:17;0.80;;;0.70;;
4630;SDS011;2328;48.170;11.602;2023-07-29T22:43:45;1.00;;;1.00;;
4630;SDS011;2328;48.170;11.602;2023-07-29T22:46:19;1.67;;;1.20;;
4630;SDS011;2328;48.170;11.602;2023-07-29T22:48:47;1.00;;;0.80;;
4630;SDS011;2328;48.170;11.602;2023-07-29T22:51:16;1.10;;;0.90;;
4630;SDS011;2328;48.170;11.602;2023-07-29T22:53:45;1.40;;;1.30;;
4630;SDS011;2328;48.170;11.602;2023-07-29T22:56:19;1.00;;;0.90;;
4630;SDS011;2328;48.170;11.602;2023-07-29T22:58:48;1.00;;;0.70;;
4630;SDS011;2328;48.170;11.602;2023-07-29T23:01:16;0.90;;;0.90;;
4630;SDS011;2328;48.170;11.602;2023-07-29T23:03:45;2.83;;;1.10;;
4630;SDS011;2328;48.170;11.602;2023-07-29T23:06:14;0.90;;;0.70;;
4630;SDS011;2328;48.170;11.602;2023-07-29T23:08:43;0.80;;;0.80;;
4630;SDS011;2328;48.170;11.602;2023-07-29T23:11:12;2.30;;;0.80;;
4630;SDS011;2328;48.170;11.602;2023-07-29T23:13:43;1.10;;;1.00;;
4630;SDS011;2328;48.170;11.602;2023-07-29T23:16:13;0.80;;;0.70;;
4630;SDS011;2328;48.170;11.602;2023-07-29T23:18:44;0.70;;;0.70;;
4630;SDS011;2328;48.170;11.602;2023-07-29T23:21:19;0.60;;;0.60;;
4630;SDS011;2328;48.170;11.602;2023-07-29T23:23:48;2.40;;;0.80;;
4630;SDS011;2328;48.170;11.602;2023-07-29T23:26:17;1.00;;;0.77;;
4630;SDS011;2328;48.170;11.602;2023-07-29T23:28:47;1.00;;;0.90;;
4630;SDS011;2328;48.170;11.602;2023-07-29T23:31:16;1.93;;;0.93;;
4630;SDS011;2328;48.170;11.602;2023-07-29T23:33:45;0.77;;;0.77;;
4630;SDS011;2328;48.170;11.602;2023-07-29T23:36:16;1.10;;;0.93;;
4630;SDS011;2328;48.170;11.602;2023-07-29T23:38:45;1.00;;;0.90;;
4630;SDS011;2328;48.170;11.602;2023-07-29T23:41:16;0.90;;;0.60;;
4630;SDS011;2328;48.170;11.602;2023-07-29T23:43:44;1.50;;;0.90;;
4630;SDS011;2328;48.170;11.602;2023-07-29T23:46:16;2.60;;;0.87;;
4630;SDS011;2328;48.170;11.602;2023-07-29T23:48:45;1.60;;;0.83;;
4630;SDS011;2328;48.170;11.602;2023-07-29T23:51:14;0.70;;;0.70;;
4630;SDS011;2328;48.170;11.602;2023-07-29T23:53:44;1.90;;;0.80;;
4630;SDS011;2328;48.170;11.602;2023-07-29T23:56:12;0.70;;;0.60;;
4630;SDS011;2328;48.170;11.602;2023-07-29T23:58:43;0.80;;;0.80;;
